createdAt,value
2019-04-27T00:01:10.593Z,10.10
2019-04-27T00:04:55.823Z,10.10
2019-04-27T00:08:39.120Z,10.10
2019-04-27T00:11:51.098Z,10.10
2019-04-27T00:14:56.087Z,10.10
2019-04-27T00:18:37.921Z,10.10
2019-04-27T00:22:03.917Z,10.00
2019-04-27T00:25:08.378Z,10.00
2019-04-27T00:28:12.936Z,10.10
2019-04-27T00:31:17.353Z,10.20
2019-04-27T00:34:21.679Z,10.00
2019-04-27T00:37:42.718Z,10.00
2019-04-27T00:41:02.934Z,10.20
2019-04-27T00:44:07.442Z,10.00
2019-04-27T00:47:11.793Z,10.20
2019-04-27T00:50:16.079Z,10.00
2019-04-27T00:53:23.442Z,10.00
2019-04-27T00:56:45.448Z,10.00
2019-04-27T01:00:13.359Z,10.00
2019-04-27T01:03:37.094Z,10.00
2019-04-27T01:06:41.638Z,10.00
2019-04-27T01:09:45.953Z,10.00
2019-04-27T01:12:50.402Z,9.90
2019-04-27T01:15:56.478Z,10.00
2019-04-27T01:19:00.792Z,10.00
2019-04-27T01:22:05.533Z,9.90
2019-04-27T01:25:10.227Z,10.00
2019-04-27T01:28:24.019Z,9.90
2019-04-27T01:31:29.405Z,10.00
2019-04-27T01:34:33.838Z,10.00
2019-04-27T01:37:38.642Z,10.00
2019-04-27T01:40:43.115Z,10.00
2019-04-27T01:43:48.987Z,10.10
2019-04-27T01:46:53.553Z,10.20
2019-04-27T01:49:58.513Z,10.10
2019-04-27T01:53:03.370Z,10.20
2019-04-27T01:56:09.216Z,10.10
2019-04-27T01:59:13.624Z,10.20
2019-04-27T02:02:52.497Z,10.20
2019-04-27T02:05:57.118Z,10.30
2019-04-27T02:09:01.467Z,10.30
2019-04-27T02:12:05.971Z,10.30
2019-04-27T02:15:10.666Z,10.10
2019-04-27T02:18:15.096Z,10.20
2019-04-27T02:21:19.483Z,10.10
2019-04-27T02:24:23.789Z,10.20
2019-04-27T02:27:29.759Z,10.10
2019-04-27T02:31:09.820Z,10.10
2019-04-27T02:34:19.972Z,10.00
2019-04-27T02:37:23.754Z,10.10
2019-04-27T02:40:55.635Z,10.20
2019-04-27T02:44:06.144Z,10.10
2019-04-27T02:47:10.859Z,10.00
2019-04-27T02:50:15.200Z,10.20
2019-04-27T02:53:29.526Z,10.20
2019-04-27T02:56:34.670Z,10.20
2019-04-27T02:59:39.882Z,10.20
2019-04-27T03:03:03.592Z,10.20
2019-04-27T03:06:09.713Z,10.20
2019-04-27T03:09:16.086Z,10.30
2019-04-27T03:12:22.217Z,10.30
2019-04-27T03:15:49.795Z,10.20
2019-04-27T03:19:17.962Z,10.40
2019-04-27T03:23:00.022Z,10.30
2019-04-27T03:26:15.036Z,10.30
2019-04-27T03:29:20.202Z,10.40
2019-04-27T03:32:25.402Z,10.40
2019-04-27T03:35:35.052Z,10.50
2019-04-27T03:38:35.918Z,10.40
2019-04-27T03:41:41.118Z,10.50
2019-04-27T03:44:45.706Z,10.40
2019-04-27T03:47:50.652Z,10.40
2019-04-27T03:51:23.046Z,10.50
2019-04-27T03:54:35.107Z,10.50
2019-04-27T03:57:44.948Z,10.50
2019-04-27T04:00:51.974Z,10.50
2019-04-27T04:03:55.918Z,10.40
2019-04-27T04:07:15.327Z,10.50
2019-04-27T04:10:23.321Z,10.40
2019-04-27T04:13:39.652Z,10.40
2019-04-27T04:16:51.791Z,10.40
2019-04-27T04:20:00.288Z,10.50
2019-04-27T04:23:03.924Z,10.40
2019-04-27T04:26:09.855Z,10.40
2019-04-27T04:29:14.315Z,10.40
2019-04-27T04:32:19.199Z,10.60
2019-04-27T04:35:24.321Z,10.50
2019-04-27T04:38:30.431Z,10.50
2019-04-27T04:41:59.957Z,10.50
2019-04-27T04:45:26.037Z,10.60
2019-04-27T04:48:30.425Z,10.70
2019-04-27T04:51:34.920Z,10.70
2019-04-27T04:54:40.901Z,10.70
2019-04-27T04:57:45.540Z,10.80
2019-04-27T05:00:50.320Z,10.80
2019-04-27T05:03:54.810Z,10.80
2019-04-27T05:06:59.345Z,10.80
2019-04-27T05:10:04.539Z,10.70
2019-04-27T05:13:09.364Z,10.80
2019-04-27T05:16:13.888Z,10.80
2019-04-27T05:19:18.871Z,10.90
2019-04-27T05:22:23.369Z,10.90
2019-04-27T05:25:28.687Z,10.80
2019-04-27T05:28:33.177Z,10.90
2019-04-27T05:31:38.836Z,10.90
2019-04-27T05:34:46.135Z,10.80
2019-04-27T05:37:50.478Z,10.80
2019-04-27T05:40:54.797Z,10.80
2019-04-27T05:44:24.585Z,10.80
2019-04-27T05:47:43.411Z,10.90
2019-04-27T05:50:51.456Z,11.00
2019-04-27T05:53:54.690Z,10.90
2019-04-27T05:56:59.276Z,10.90
2019-04-27T06:00:04.663Z,11.00
2019-04-27T06:03:09.161Z,11.00
2019-04-27T06:06:13.505Z,11.00
2019-04-27T06:09:19.538Z,11.00
2019-04-27T06:12:24.018Z,11.10
2019-04-27T06:15:29.998Z,11.20
2019-04-27T06:18:34.572Z,11.20
2019-04-27T06:21:40.116Z,11.30
2019-04-27T06:24:44.679Z,11.40
2019-04-27T06:27:49.683Z,11.50
2019-04-27T06:30:54.548Z,11.60
2019-04-27T06:33:59.731Z,11.60
2019-04-27T06:37:04.646Z,11.70
2019-04-27T06:40:12.605Z,11.80
2019-04-27T06:43:18.787Z,11.90
2019-04-27T06:46:23.012Z,11.90
2019-04-27T06:49:27.314Z,12.00
2019-04-27T06:52:31.725Z,12.20
2019-04-27T06:55:36.523Z,12.30
2019-04-27T06:58:41.252Z,12.50
2019-04-27T07:01:45.984Z,12.60
2019-04-27T07:04:50.294Z,12.70
2019-04-27T07:07:54.674Z,12.80
2019-04-27T07:10:59.161Z,13.00
2019-04-27T07:14:03.579Z,13.00
2019-04-27T07:17:08.949Z,13.20
2019-04-27T07:20:13.498Z,13.30
2019-04-27T07:23:18.701Z,13.40
2019-04-27T07:26:23.889Z,13.50
2019-04-27T07:29:29.284Z,13.60
2019-04-27T07:32:33.744Z,13.70
2019-04-27T07:35:39.305Z,13.70
2019-04-27T07:38:45.332Z,13.80
2019-04-27T07:41:49.558Z,13.90
2019-04-27T07:44:59.913Z,14.10
2019-04-27T07:48:04.449Z,14.10
2019-04-27T07:51:09.066Z,14.20
2019-04-27T07:54:13.472Z,14.40
2019-04-27T07:57:19.452Z,14.40
2019-04-27T08:00:24.008Z,14.60
2019-04-27T08:03:29.115Z,14.80
2019-04-27T08:06:33.555Z,14.90
2019-04-27T08:09:39.616Z,15.10
2019-04-27T08:12:43.894Z,15.30
2019-04-27T08:15:49.624Z,15.30
2019-04-27T08:18:54.153Z,15.50
2019-04-27T08:21:59.637Z,15.50
2019-04-27T08:25:04.735Z,15.60
2019-04-27T08:28:38.660Z,15.50
2019-04-27T08:31:51.695Z,15.50
2019-04-27T08:34:59.471Z,15.60
2019-04-27T08:38:03.975Z,15.60
2019-04-27T08:41:08.980Z,15.70
2019-04-27T08:44:13.533Z,15.80
2019-04-27T08:47:19.419Z,16.00
2019-04-27T08:50:23.964Z,16.30
2019-04-27T08:53:29.821Z,16.50
2019-04-27T08:56:34.411Z,16.80
2019-04-27T08:59:39.288Z,17.00
2019-04-27T09:02:47.067Z,17.50
2019-04-27T09:05:49.893Z,17.80
2019-04-27T09:09:09.565Z,18.30
2019-04-27T09:12:53.490Z,18.40
2019-04-27T09:16:23.724Z,18.60
2019-04-27T09:19:46.958Z,18.80
2019-04-27T09:22:51.286Z,18.80
2019-04-27T09:25:55.729Z,18.90
2019-04-27T09:29:00.040Z,18.90
2019-04-27T09:32:23.456Z,19.10
2019-04-27T09:35:30.460Z,19.10
2019-04-27T09:38:35.785Z,19.30
2019-04-27T09:41:40.197Z,19.30
2019-04-27T09:44:45.690Z,19.40
2019-04-27T09:47:50.643Z,19.60
2019-04-27T09:50:57.781Z,20.00
2019-04-27T09:54:02.194Z,20.60
2019-04-27T09:57:07.098Z,21.00
2019-04-27T10:00:13.850Z,21.20
2019-04-27T10:03:18.206Z,21.20
2019-04-27T10:06:22.574Z,21.20
2019-04-27T10:09:29.571Z,21.30
2019-04-27T10:12:34.456Z,21.10
2019-04-27T10:15:39.047Z,21.20
2019-04-27T10:18:43.416Z,21.50
2019-04-27T10:21:47.777Z,21.70
2019-04-27T10:24:52.330Z,22.00
2019-04-27T10:27:59.740Z,22.20
2019-04-27T10:31:04.392Z,22.50
2019-04-27T10:34:08.784Z,23.00
2019-04-27T10:37:13.118Z,23.60
2019-04-27T10:40:17.492Z,24.10
2019-04-27T10:43:21.844Z,24.30
2019-04-27T10:46:26.161Z,24.10
2019-04-27T10:49:33.523Z,23.70
2019-04-27T10:52:37.943Z,23.50
2019-04-27T10:55:42.300Z,23.30
2019-04-27T10:58:46.627Z,23.10
2019-04-27T11:01:51.161Z,23.00
2019-04-27T11:05:01.393Z,22.80
2019-04-27T11:08:10.593Z,22.60
2019-04-27T11:11:15.021Z,22.60
2019-04-27T11:14:19.509Z,22.50
2019-04-27T11:17:23.873Z,22.40
2019-04-27T11:20:28.203Z,22.30
2019-04-27T11:23:32.761Z,22.20
2019-04-27T11:26:37.114Z,22.20
2019-04-27T11:29:42.642Z,22.30
2019-04-27T11:32:48.058Z,22.30
2019-04-27T11:35:58.407Z,22.20
2019-04-27T11:39:03.245Z,22.30
2019-04-27T11:42:07.634Z,22.40
2019-04-27T11:45:13.824Z,22.30
2019-04-27T11:48:18.120Z,22.30
2019-04-27T11:51:22.487Z,22.30
2019-04-27T11:54:27.694Z,22.30
2019-04-27T11:57:32.042Z,22.00
2019-04-27T12:00:37.047Z,21.80
2019-04-27T12:03:41.359Z,21.60
2019-04-27T12:06:46.264Z,21.30
2019-04-27T12:09:53.207Z,21.20
2019-04-27T12:12:57.617Z,21.00
2019-04-27T12:16:01.995Z,21.00
2019-04-27T12:19:08.574Z,21.00
2019-04-27T12:22:12.880Z,21.10
2019-04-27T12:25:17.422Z,21.10
2019-04-27T12:28:37.825Z,21.30
2019-04-27T12:31:46.435Z,21.50
2019-04-27T12:34:49.858Z,21.60
2019-04-27T12:37:55.826Z,21.50
2019-04-27T12:41:00.488Z,21.50
2019-04-27T12:44:11.070Z,21.60
2019-04-27T12:47:16.378Z,21.80
2019-04-27T12:50:22.551Z,21.70
2019-04-27T12:53:32.469Z,21.60
2019-04-27T12:56:58.560Z,21.60
2019-04-27T13:00:23.810Z,21.30
2019-04-27T13:03:28.179Z,21.10
2019-04-27T13:06:35.683Z,20.70
2019-04-27T13:09:42.759Z,20.60
2019-04-27T13:12:47.132Z,20.70
2019-04-27T13:15:51.475Z,20.70
2019-04-27T13:18:57.463Z,20.70
2019-04-27T13:22:02.096Z,20.90
2019-04-27T13:25:09.355Z,20.70
2019-04-27T13:28:15.066Z,20.60
2019-04-27T13:31:25.679Z,20.50
2019-04-27T13:34:30.173Z,20.30
2019-04-27T13:37:42.011Z,20.30
2019-04-27T13:41:05.883Z,20.10
2019-04-27T13:44:29.443Z,20.20
2019-04-27T13:48:06.090Z,20.00
2019-04-27T13:51:13.489Z,20.00
2019-04-27T13:54:25.443Z,19.80
2019-04-27T13:57:24.000Z,19.90
2019-04-27T14:00:28.551Z,19.80
2019-04-27T14:03:33.681Z,20.00
2019-04-27T14:06:38.158Z,20.00
2019-04-27T14:09:42.524Z,20.10
2019-04-27T14:12:48.733Z,20.10
2019-04-27T14:15:52.898Z,19.90
2019-04-27T14:18:57.275Z,19.70
2019-04-27T14:22:01.638Z,19.60
2019-04-27T14:25:08.617Z,19.60
2019-04-27T14:28:13.069Z,19.50
2019-04-27T14:31:18.960Z,19.50
2019-04-27T14:34:30.918Z,19.30
2019-04-27T14:37:35.233Z,19.30
2019-04-27T14:40:39.641Z,19.30
2019-04-27T14:43:44.053Z,19.40
2019-04-27T14:46:48.651Z,19.30
2019-04-27T14:49:52.949Z,19.20
2019-04-27T14:53:00.282Z,19.20
2019-04-27T14:56:04.654Z,19.20
2019-04-27T14:59:09.014Z,19.10
2019-04-27T15:02:14.869Z,18.90
2019-04-27T15:05:19.208Z,18.80
2019-04-27T15:08:25.152Z,18.60
2019-04-27T15:11:31.601Z,18.60
2019-04-27T15:14:35.622Z,18.60
2019-04-27T15:17:40.251Z,18.70
2019-04-27T15:20:46.544Z,18.80
2019-04-27T15:23:51.125Z,18.90
2019-04-27T15:27:00.728Z,18.90
2019-04-27T15:30:06.074Z,18.80
2019-04-27T15:33:29.454Z,18.60
2019-04-27T15:36:58.809Z,18.60
2019-04-27T15:40:18.579Z,18.30
2019-04-27T15:43:27.339Z,18.10
2019-04-27T15:46:33.889Z,17.90
2019-04-27T15:49:45.052Z,17.80
2019-04-27T15:52:45.257Z,17.60
2019-04-27T15:55:53.631Z,17.40
2019-04-27T15:58:59.963Z,17.10
2019-04-27T16:02:05.503Z,17.00
2019-04-27T16:05:11.670Z,16.80
2019-04-27T16:08:18.641Z,16.70
2019-04-27T16:11:22.458Z,16.60
2019-04-27T16:14:28.832Z,16.50
2019-04-27T16:17:33.325Z,16.40
2019-04-27T16:20:38.086Z,16.30
2019-04-27T16:23:43.357Z,16.20
2019-04-27T16:26:52.208Z,16.10
2019-04-27T16:29:54.505Z,15.80
2019-04-27T16:32:59.184Z,15.80
2019-04-27T16:36:06.938Z,15.70
2019-04-27T16:39:11.018Z,15.90
2019-04-27T16:42:18.784Z,15.90
2019-04-27T16:45:27.147Z,15.80
2019-04-27T16:48:48.722Z,16.00
2019-04-27T16:51:53.078Z,16.00
2019-04-27T16:55:00.260Z,16.10
2019-04-27T16:58:15.773Z,16.00
2019-04-27T17:01:28.463Z,16.10
2019-04-27T17:04:34.100Z,16.10
2019-04-27T17:07:41.763Z,16.00
2019-04-27T17:10:45.012Z,16.00
2019-04-27T17:13:54.650Z,15.90
2019-04-27T17:17:21.094Z,15.80
2019-04-27T17:20:25.501Z,15.70
2019-04-27T17:23:31.594Z,15.70
2019-04-27T17:26:42.338Z,15.60
2019-04-27T17:29:43.350Z,15.50
2019-04-27T17:33:15.606Z,15.40
2019-04-27T17:36:20.015Z,15.40
2019-04-27T17:39:24.849Z,15.20
2019-04-27T17:42:30.605Z,14.90
2019-04-27T17:45:36.311Z,14.70
2019-04-27T17:48:41.594Z,14.70
2019-04-27T17:51:46.069Z,14.40
2019-04-27T17:54:50.404Z,14.20
2019-04-27T17:57:58.945Z,14.10
2019-04-27T18:01:00.808Z,13.90
2019-04-27T18:04:08.462Z,13.80
2019-04-27T18:07:11.406Z,13.70
2019-04-27T18:10:21.127Z,13.50
2019-04-27T18:13:25.525Z,13.50
2019-04-27T18:16:34.023Z,13.30
2019-04-27T18:19:48.236Z,13.20
2019-04-27T18:22:58.044Z,13.00
2019-04-27T18:26:17.578Z,12.90
2019-04-27T18:29:22.926Z,12.80
2019-04-27T18:32:27.640Z,12.80
2019-04-27T18:35:32.476Z,12.60
2019-04-27T18:38:37.426Z,12.50
2019-04-27T18:41:49.024Z,12.40
2019-04-27T18:44:48.940Z,12.40
2019-04-27T18:48:00.848Z,12.40
2019-04-27T18:51:25.178Z,12.30
2019-04-27T18:54:28.446Z,12.20
2019-04-27T18:57:33.093Z,12.20
2019-04-27T19:00:38.168Z,12.20
2019-04-27T19:03:42.683Z,12.20
2019-04-27T19:06:47.050Z,12.20
2019-04-27T19:09:51.396Z,12.10
2019-04-27T19:12:55.768Z,12.10
2019-04-27T19:16:00.766Z,12.10
2019-04-27T19:19:05.223Z,12.10
2019-04-27T19:22:10.032Z,12.00
2019-04-27T19:25:21.250Z,11.90
2019-04-27T19:28:43.307Z,11.80
2019-04-27T19:31:52.473Z,11.80
2019-04-27T19:34:56.844Z,11.80
2019-04-27T19:38:20.235Z,11.70
2019-04-27T19:41:24.898Z,11.60
2019-04-27T19:44:29.418Z,11.60
2019-04-27T19:47:36.128Z,11.50
2019-04-27T19:50:40.459Z,11.40
2019-04-27T19:53:45.907Z,11.50
2019-04-27T19:56:51.415Z,11.40
2019-04-27T19:59:58.956Z,11.60
2019-04-27T20:03:04.614Z,11.50
2019-04-27T20:06:08.947Z,11.50
2019-04-27T20:09:22.288Z,11.50
2019-04-27T20:12:28.379Z,11.50
2019-04-27T20:15:32.931Z,11.50
2019-04-27T20:18:37.244Z,11.50
2019-04-27T20:21:41.977Z,11.50
2019-04-27T20:24:46.350Z,11.50
2019-04-27T20:27:51.975Z,11.50
2019-04-27T20:30:56.845Z,11.50
2019-04-27T20:34:01.253Z,11.40
2019-04-27T20:37:05.711Z,11.40
2019-04-27T20:40:11.640Z,11.50
2019-04-27T20:43:16.118Z,11.50
2019-04-27T20:46:22.385Z,11.30
2019-04-27T20:49:45.602Z,11.50
2019-04-27T20:52:55.067Z,11.40
2019-04-27T20:55:59.431Z,11.30
2019-04-27T20:59:03.766Z,11.40
2019-04-27T21:02:25.711Z,11.30
2019-04-27T21:05:41.163Z,11.10
2019-04-27T21:08:45.524Z,10.90
2019-04-27T21:11:49.874Z,10.90
2019-04-27T21:14:54.248Z,10.60
2019-04-27T21:17:58.640Z,10.50
2019-04-27T21:21:02.878Z,10.50
2019-04-27T21:24:07.250Z,10.30
2019-04-27T21:27:13.039Z,10.40
2019-04-27T21:30:17.512Z,10.30
2019-04-27T21:33:21.836Z,10.20
2019-04-27T21:36:26.208Z,10.20
2019-04-27T21:39:31.898Z,10.20
2019-04-27T21:42:36.427Z,10.10
2019-04-27T21:45:42.010Z,10.10
2019-04-27T21:48:46.691Z,10.10
2019-04-27T21:52:08.232Z,10.10
2019-04-27T21:55:13.697Z,10.00
2019-04-27T21:58:28.405Z,10.00
2019-04-27T22:01:28.841Z,10.10
2019-04-27T22:04:33.214Z,9.90
2019-04-27T22:07:37.637Z,10.00
2019-04-27T22:10:42.128Z,10.10
2019-04-27T22:13:46.453Z,10.00
2019-04-27T22:16:51.908Z,9.90
2019-04-27T22:19:57.413Z,9.90
2019-04-27T22:23:03.884Z,10.00
2019-04-27T22:26:08.198Z,9.90
2019-04-27T22:29:12.536Z,10.00
2019-04-27T22:32:16.920Z,10.00
2019-04-27T22:35:27.058Z,9.90
2019-04-27T22:38:32.703Z,9.90
2019-04-27T22:41:59.145Z,10.00
2019-04-27T22:45:28.833Z,10.00
2019-04-27T22:48:33.296Z,10.10
2019-04-27T22:51:37.623Z,10.00
2019-04-27T22:54:42.183Z,9.90
2019-04-27T22:57:55.169Z,10.10
2019-04-27T23:01:10.223Z,10.10
2019-04-27T23:04:17.244Z,10.00
2019-04-27T23:07:21.615Z,10.00
2019-04-27T23:10:25.992Z,9.90
2019-04-27T23:13:30.333Z,10.00
2019-04-27T23:16:36.494Z,9.90
2019-04-27T23:19:40.875Z,9.90
2019-04-27T23:22:46.844Z,9.80
2019-04-27T23:25:51.374Z,9.80
2019-04-27T23:28:56.694Z,9.70
2019-04-27T23:32:16.339Z,9.80
2019-04-27T23:35:20.695Z,9.70
2019-04-27T23:38:25.061Z,9.60
2019-04-27T23:41:29.599Z,9.60
2019-04-27T23:44:33.956Z,9.60
2019-04-27T23:47:38.417Z,9.50
2019-04-27T23:50:44.689Z,9.60
2019-04-27T23:53:49.007Z,9.60
2019-04-27T23:56:53.321Z,9.50
2019-04-27T23:59:57.646Z,9.60
